Time;durP1;ratioP1;P1;durP2;ratioP2;P2;SDS_P1;SDS_P2;PMS_P1;PMS_P2;Temp;Humidity;BMP_temperature;BMP_pressure;BME280_temperature;BME280_humidity;BME280_pressure;Samples;Min_cycle;Max_cycle;Signal;HPM_P1;HPM_P2
2022/08/07 00:02:08;;;;;;;16.2;14.1;;;;;;;;;;;;;
2022/08/07 00:04:34;;;;;;;15.7;13.5;;;;;;;;;;;;;
2022/08/07 00:06:59;;;;;;;19.3;14.7;;;;;;;;;;;;;
2022/08/07 00:09:25;;;;;;;15.7;14;;;;;;;;;;;;;
2022/08/07 00:11:50;;;;;;;17.3;14.4;;;;;;;;;;;;;
2022/08/07 00:14:15;;;;;;;17.5;15;;;;;;;;;;;;;
2022/08/07 00:16:40;;;;;;;17.7;14.2;;;;;;;;;;;;;
2022/08/07 00:19:07;;;;;;;15.9;13.3;;;;;;;;;;;;;
2022/08/07 00:21:32;;;;;;;15.6;12.7;;;;;;;;;;;;;
2022/08/07 00:23:58;;;;;;;13.3;11.9;;;;;;;;;;;;;
2022/08/07 00:26:23;;;;;;;15;11.7;;;;;;;;;;;;;
2022/08/07 00:28:49;;;;;;;13.2;11.8;;;;;;;;;;;;;
2022/08/07 00:31:15;;;;;;;16.4;13.3;;;;;;;;;;;;;
2022/08/07 00:33:40;;;;;;;14.6;12.6;;;;;;;;;;;;;
2022/08/07 00:36:05;;;;;;;14;12.5;;;;;;;;;;;;;
2022/08/07 00:38:32;;;;;;;15.1;13.5;;;;;;;;;;;;;
2022/08/07 00:40:56;;;;;;;15.5;13.4;;;;;;;;;;;;;
2022/08/07 00:43:23;;;;;;;16.9;14.4;;;;;;;;;;;;;
2022/08/07 00:45:49;;;;;;;15.1;13.5;;;;;;;;;;;;;
2022/08/07 00:48:14;;;;;;;16;13.9;;;;;;;;;;;;;
2022/08/07 00:50:40;;;;;;;15.2;13.4;;;;;;;;;;;;;
2022/08/07 00:53:05;;;;;;;14.3;12.4;;;;;;;;;;;;;
2022/08/07 00:55:30;;;;;;;14.6;12.7;;;;;;;;;;;;;
2022/08/07 00:57:56;;;;;;;14.2;12.1;;;;;;;;;;;;;
2022/08/07 01:00:21;;;;;;;14.2;11.2;;;;;;;;;;;;;
2022/08/07 01:02:49;;;;;;;12.5;10.9;;;;;;;;;;;;;
2022/08/07 01:05:15;;;;;;;13.5;11;;;;;;;;;;;;;
2022/08/07 01:07:40;;;;;;;12;10.7;;;;;;;;;;;;;
2022/08/07 01:10:05;;;;;;;13.4;11.5;;;;;;;;;;;;;
2022/08/07 01:12:32;;;;;;;12.1;10.8;;;;;;;;;;;;;
2022/08/07 01:14:58;;;;;;;11.1;10;;;;;;;;;;;;;
2022/08/07 01:17:22;;;;;;;10.7;9.6;;;;;;;;;;;;;
2022/08/07 01:19:47;;;;;;;11.6;10.3;;;;;;;;;;;;;
2022/08/07 01:22:12;;;;;;;11.3;10.1;;;;;;;;;;;;;
2022/08/07 01:24:38;;;;;;;11.2;10;;;;;;;;;;;;;
2022/08/07 01:27:04;;;;;;;10.8;9.7;;;;;;;;;;;;;
2022/08/07 01:29:29;;;;;;;11.1;9.5;;;;;;;;;;;;;
2022/08/07 01:31:54;;;;;;;10.3;9.2;;;;;;;;;;;;;
2022/08/07 01:34:19;;;;;;;11.4;10.3;;;;;;;;;;;;;
2022/08/07 01:36:46;;;;;;;10.7;9.4;;;;;;;;;;;;;
2022/08/07 01:39:11;;;;;;;10.7;9.2;;;;;;;;;;;;;
2022/08/07 01:41:37;;;;;;;11.5;10.2;;;;;;;;;;;;;
2022/08/07 01:44:02;;;;;;;12.2;10.4;;;;;;;;;;;;;
2022/08/07 01:46:29;;;;;;;13.5;11.3;;;;;;;;;;;;;
2022/08/07 01:48:54;;;;;;;12.5;11.2;;;;;;;;;;;;;
2022/08/07 01:51:20;;;;;;;12.3;11;;;;;;;;;;;;;
2022/08/07 01:53:46;;;;;;;12.7;11.3;;;;;;;;;;;;;
2022/08/07 01:56:12;;;;;;;13.3;11.4;;;;;;;;;;;;;
2022/08/07 01:58:37;;;;;;;13.3;11.9;;;;;;;;;;;;;
2022/08/07 02:01:03;;;;;;;14.8;13;;;;;;;;;;;;;
2022/08/07 02:03:28;;;;;;;14.8;13.2;;;;;;;;;;;;;
2022/08/07 02:05:56;;;;;;;17.6;13.6;;;;;;;;;;;;;
2022/08/07 02:08:21;;;;;;;16.5;13.7;;;;;;;;;;;;;
2022/08/07 02:10:47;;;;;;;15;13.4;;;;;;;;;;;;;
2022/08/07 02:13:11;;;;;;;18.8;14.7;;;;;;;;;;;;;
2022/08/07 02:15:37;;;;;;;16.8;14.5;;;;;;;;;;;;;
2022/08/07 02:18:02;;;;;;;17.9;15.1;;;;;;;;;;;;;
2022/08/07 02:20:28;;;;;;;17.2;14;;;;;;;;;;;;;
2022/08/07 02:22:53;;;;;;;17.2;14.8;;;;;;;;;;;;;
2022/08/07 02:25:21;;;;;;;17.2;13.9;;;;;;;;;;;;;
2022/08/07 02:27:46;;;;;;;17.2;14.8;;;;;;;;;;;;;
2022/08/07 02:30:12;;;;;;;16.6;14.6;;;;;;;;;;;;;
2022/08/07 02:32:38;;;;;;;17;15.2;;;;;;;;;;;;;
2022/08/07 02:35:06;;;;;;;17.9;15.3;;;;;;;;;;;;;
2022/08/07 02:37:28;;;;;;;17.5;14.9;;;;;;;;;;;;;
2022/08/07 02:39:54;;;;;;;18.7;15.1;;;;;;;;;;;;;
2022/08/07 02:42:19;;;;;;;17;14.7;;;;;;;;;;;;;
2022/08/07 02:44:46;;;;;;;16.5;14.1;;;;;;;;;;;;;
2022/08/07 02:47:11;;;;;;;17.6;14.9;;;;;;;;;;;;;
2022/08/07 02:49:37;;;;;;;17.5;14.8;;;;;;;;;;;;;
2022/08/07 02:52:02;;;;;;;16.4;13.9;;;;;;;;;;;;;
2022/08/07 02:54:27;;;;;;;17.4;14.8;;;;;;;;;;;;;
2022/08/07 02:56:53;;;;;;;18.1;15;;;;;;;;;;;;;
2022/08/07 02:59:20;;;;;;;18.9;14.8;;;;;;;;;;;;;
2022/08/07 03:01:45;;;;;;;17.1;14.6;;;;;;;;;;;;;
2022/08/07 03:04:10;;;;;;;18.5;15.2;;;;;;;;;;;;;
2022/08/07 03:06:38;;;;;;;17.1;14.4;;;;;;;;;;;;;
2022/08/07 03:09:02;;;;;;;18.6;15.1;;;;;;;;;;;;;
2022/08/07 03:11:27;;;;;;;18.4;14.9;;;;;;;;;;;;;
2022/08/07 03:13:54;;;;;;;18.1;14.4;;;;;;;;;;;;;
2022/08/07 03:16:19;;;;;;;16.8;14;;;;;;;;;;;;;
2022/08/07 03:18:45;;;;;;;18.1;15.5;;;;;;;;;;;;;
2022/08/07 03:21:10;;;;;;;17.4;14.9;;;;;;;;;;;;;
2022/08/07 03:23:35;;;;;;;18;16;;;;;;;;;;;;;
2022/08/07 03:26:00;;;;;;;18.1;15.1;;;;;;;;;;;;;
2022/08/07 03:28:27;;;;;;;18.2;15.8;;;;;;;;;;;;;
2022/08/07 03:31:17;;;;;;;17.9;15;;;;;;;;;;;;;
2022/08/07 03:33:17;;;;;;;17;15;;;;;;;;;;;;;
2022/08/07 03:35:43;;;;;;;16.8;14.3;;;;;;;;;;;;;
2022/08/07 03:38:08;;;;;;;17.4;14.6;;;;;;;;;;;;;
2022/08/07 03:40:34;;;;;;;17;14.2;;;;;;;;;;;;;
2022/08/07 03:42:59;;;;;;;16.1;13.4;;;;;;;;;;;;;
2022/08/07 03:45:26;;;;;;;16;13.6;;;;;;;;;;;;;
2022/08/07 03:47:51;;;;;;;13.9;12.5;;;;;;;;;;;;;
2022/08/07 03:50:20;;;;;;;14.9;13;;;;;;;;;;;;;
2022/08/07 03:52:48;;;;;;;17.6;14.4;;;;;;;;;;;;;
2022/08/07 03:55:13;;;;;;;17.8;15.3;;;;;;;;;;;;;
2022/08/07 03:57:40;;;;;;;17.9;15.1;;;;;;;;;;;;;
2022/08/07 04:02:36;;;;;;;17;14.5;;;;;;;17.66;95.96973;941.7265;;;;
2022/08/07 04:05:08;;;;;;;19.1;15.9;;;;;;;17.71;95.75879;941.7213;;;;
2022/08/07 04:07:33;;;;;;;20.5;16;;;;;;;17.76;95.67773;941.7045;;;;
2022/08/07 04:10:01;;;;;;;19.3;15.7;;;;;;;17.76;95.28125;941.6974;;;;
2022/08/07 04:12:26;;;;;;;18.5;15.9;;;;;;;17.82;95.19043;941.666;;;;
2022/08/07 04:14:56;;;;;;;19.4;16.1;;;;;;;17.84;95.04492;941.6814;;;;
2022/08/07 04:17:21;;;;;;;18.2;15.3;;;;;;;17.84;95.17285;941.6797;;;;
2022/08/07 04:19:51;;;;;;;17.5;15.4;;;;;;;17.86;95.10742;941.7327;;;;
2022/08/07 04:22:15;;;;;;;16.2;14.2;;;;;;;17.86;95.11914;941.694;;;;
2022/08/07 04:24:44;;;;;;;18.1;15.3;;;;;;;17.88;95.01563;941.7131;;;;
2022/08/07 04:27:09;;;;;;;18.5;15.3;;;;;;;17.82;95.0625;941.6994;;;;
2022/08/07 04:29:38;;;;;;;17.7;14.8;;;;;;;17.86;94.57129;941.7085;;;;
2022/08/07 04:32:03;;;;;;;16.2;14.4;;;;;;;17.84;94.5459;941.712;;;;
2022/08/07 04:34:30;;;;;;;16.6;14.7;;;;;;;17.86;94.83984;941.7205;;;;
2022/08/07 04:36:55;;;;;;;18.2;15.7;;;;;;;17.9;94.51074;941.7289;;;;
2022/08/07 04:39:28;;;;;;;17.6;15.7;;;;;;;17.88;94.42383;941.7864;;;;
2022/08/07 04:41:56;;;;;;;19;15.8;;;;;;;17.78;95.64453;941.8042;;;;
2022/08/07 04:44:27;;;;;;;17.3;15.2;;;;;;;17.8;95.56934;941.8265;;;;
2022/08/07 04:46:54;;;;;;;18.8;15.7;;;;;;;17.73;95.62305;941.7525;;;;
2022/08/07 04:49:19;;;;;;;18.8;16;;;;;;;17.84;95.19434;941.782;;;;
2022/08/07 04:51:46;;;;;;;18.6;14.8;;;;;;;17.81;94.97949;941.7862;;;;
2022/08/07 04:54:14;;;;;;;18.7;15.6;;;;;;;17.85;95.18457;941.7618;;;;
2022/08/07 04:56:40;;;;;;;18;15.9;;;;;;;17.94;94.64648;941.7453;;;;
2022/08/07 04:59:05;;;;;;;18.2;16.2;;;;;;;18.03;94.27148;941.738;;;;
2022/08/07 05:01:30;;;;;;;17.2;14.9;;;;;;;18.12;93.65332;941.7592;;;;
2022/08/07 05:03:59;;;;;;;17.3;14.6;;;;;;;18.13;93.73438;941.7889;;;;
2022/08/07 05:06:28;;;;;;;17.6;15.4;;;;;;;18.18;93.66504;941.8035;;;;
2022/08/07 05:08:54;;;;;;;17.4;15.3;;;;;;;18.21;93.27344;941.7975;;;;
2022/08/07 05:11:19;;;;;;;20.7;16.1;;;;;;;18.26;92.97168;941.8027;;;;
2022/08/07 05:13:45;;;;;;;18.2;15.1;;;;;;;18.21;93.36816;941.7935;;;;
2022/08/07 05:16:11;;;;;;;19.2;15.8;;;;;;;18.24;93.30664;941.7449;;;;
2022/08/07 05:18:40;;;;;;;18.5;15.1;;;;;;;18.2;93.94727;941.8002;;;;
2022/08/07 05:21:05;;;;;;;18.2;15.1;;;;;;;18.18;94.16406;941.7455;;;;
2022/08/07 05:23:30;;;;;;;19.7;15.5;;;;;;;18.2;94.09863;941.7701;;;;
2022/08/07 05:26:01;;;;;;;17.9;14.4;;;;;;;18.28;93.74414;941.7459;;;;
2022/08/07 05:28:29;;;;;;;18.7;15.1;;;;;;;18.25;93.86621;941.7851;;;;
2022/08/07 05:30:54;;;;;;;18.2;14.9;;;;;;;18.31;93.66895;941.8077;;;;
2022/08/07 05:33:20;;;;;;;15.7;13.5;;;;;;;18.34;92.99023;941.8152;;;;
2022/08/07 05:35:51;;;;;;;16;13.1;;;;;;;18.23;93.3623;941.853;;;;
2022/08/07 05:38:19;;;;;;;15.6;12.8;;;;;;;18.22;93.32422;941.7958;;;;
2022/08/07 05:40:44;;;;;;;16.1;13;;;;;;;18.19;93.23828;941.7744;;;;
2022/08/07 05:43:14;;;;;;;14.3;12.1;;;;;;;18.09;93.86621;941.8402;;;;
2022/08/07 05:45:45;;;;;;;14.9;12.6;;;;;;;18.14;94.0293;941.8387;;;;
2022/08/07 05:48:10;;;;;;;13.2;11.2;;;;;;;18.07;93.68848;941.9041;;;;
2022/08/07 05:50:39;;;;;;;13.5;10.3;;;;;;;18.02;93.52539;941.8611;;;;
2022/08/07 05:53:10;;;;;;;13.5;10.9;;;;;;;18.01;93.85059;941.845;;;;
2022/08/07 05:55:42;;;;;;;10.7;9.4;;;;;;;17.95;93.95215;941.9183;;;;
2022/08/07 05:58:13;;;;;;;12.9;9.6;;;;;;;18.06;93.42871;941.9342;;;;
2022/08/07 06:00:38;;;;;;;11.7;9.6;;;;;;;17.87;93.74805;941.9565;;;;
2022/08/07 06:03:06;;;;;;;10.7;9.3;;;;;;;17.91;94.08496;942.0067;;;;
2022/08/07 06:05:31;;;;;;;10.1;9;;;;;;;18.01;93.68652;942.0627;;;;
2022/08/07 06:08:02;;;;;;;9.1;8;;;;;;;18.06;92.74316;942.0945;;;;
2022/08/07 06:10:32;;;;;;;9.7;8.6;;;;;;;17.96;92.29297;942.0955;;;;
2022/08/07 06:13:01;;;;;;;10;9;;;;;;;17.98;93.12109;942.0792;;;;
2022/08/07 06:15:28;;;;;;;9.3;8.2;;;;;;;18.03;92.4707;942.0941;;;;
2022/08/07 06:17:57;;;;;;;9.7;8.7;;;;;;;18.11;91.95313;942.0817;;;;
2022/08/07 06:20:22;;;;;;;9.9;8.3;;;;;;;18.18;91.4668;942.1365;;;;
2022/08/07 06:22:49;;;;;;;9.2;8.3;;;;;;;18.22;91.0459;942.0698;;;;
2022/08/07 06:25:14;;;;;;;9.3;8.3;;;;;;;18.27;90.63867;942.1145;;;;
2022/08/07 06:27:44;;;;;;;9.6;8.6;;;;;;;18.33;89.86133;941.9991;;;;
2022/08/07 06:30:09;;;;;;;9;8.1;;;;;;;18.41;89.59766;942.0352;;;;
2022/08/07 06:32:36;;;;;;;9.6;8.4;;;;;;;18.51;89.23438;942.0331;;;;
2022/08/07 06:35:01;;;;;;;11.3;8.9;;;;;;;18.55;89.20801;941.9913;;;;
2022/08/07 06:37:26;;;;;;;9.4;8.3;;;;;;;18.29;89.22266;942.0361;;;;
2022/08/07 06:39:54;;;;;;;11.1;8.8;;;;;;;18.37;89.7998;942.022;;;;
2022/08/07 06:42:20;;;;;;;10.2;8.7;;;;;;;18.24;90.73828;942.0037;;;;
2022/08/07 06:44:46;;;;;;;9.7;8.7;;;;;;;18.29;90.43359;942.011;;;;
2022/08/07 06:47:11;;;;;;;11.4;9.2;;;;;;;18.26;91.1123;941.9486;;;;
2022/08/07 06:49:37;;;;;;;10.8;9;;;;;;;18.06;90.23438;942.0293;;;;
2022/08/07 06:52:02;;;;;;;10.5;9.1;;;;;;;18.09;90.63672;941.9967;;;;
2022/08/07 06:54:27;;;;;;;10.1;8.7;;;;;;;18.07;90.2959;942.0089;;;;
2022/08/07 06:56:52;;;;;;;11.5;9.2;;;;;;;17.93;91.5791;941.93;;;;
2022/08/07 06:59:20;;;;;;;10;9;;;;;;;18.11;90.55957;941.8722;;;;
2022/08/07 07:01:45;;;;;;;9.5;8.4;;;;;;;18.31;90.04199;941.9092;;;;
2022/08/07 07:04:13;;;;;;;10.1;9.1;;;;;;;18.2;90.4502;941.9573;;;;
2022/08/07 07:06:38;;;;;;;11.2;9.1;;;;;;;18.04;91.21973;941.9368;;;;
2022/08/07 07:09:04;;;;;;;9.3;8.3;;;;;;;18.23;91.29395;941.9094;;;;
2022/08/07 07:11:29;;;;;;;10.8;8.9;;;;;;;18.17;91.06055;941.8915;;;;
2022/08/07 07:14:00;;;;;;;9.5;8.6;;;;;;;18.44;90.23047;941.9068;;;;
2022/08/07 07:16:30;;;;;;;9.9;8.5;;;;;;;18.53;88.57617;941.9263;;;;
2022/08/07 07:18:56;;;;;;;9.6;8.3;;;;;;;18.62;86.87305;941.8736;;;;
2022/08/07 07:21:22;;;;;;;9.6;8.4;;;;;;;18.65;87.33203;941.884;;;;
2022/08/07 07:23:52;;;;;;;9.3;8.3;;;;;;;18.52;88.07324;941.9072;;;;
2022/08/07 07:26:24;;;;;;;8.8;7.9;;;;;;;18.75;86.7002;941.9235;;;;
2022/08/07 07:28:54;;;;;;;9.2;8.2;;;;;;;18.86;85.37207;941.9172;;;;
2022/08/07 07:31:18;;;;;;;11.2;9.1;;;;;;;18.79;85.40625;941.8486;;;;
2022/08/07 07:33:43;;;;;;;9.5;8.4;;;;;;;18.83;85.21484;941.8524;;;;
2022/08/07 07:36:08;;;;;;;11.6;8.7;;;;;;;18.88;84.30469;941.866;;;;
2022/08/07 07:38:33;;;;;;;10.3;8.3;;;;;;;19.09;84.33398;941.8731;;;;
2022/08/07 07:41:02;;;;;;;9.8;8.3;;;;;;;19.02;83.45898;941.8184;;;;
2022/08/07 07:43:28;;;;;;;9.2;8.2;;;;;;;19.09;83.1123;941.7941;;;;
2022/08/07 07:45:53;;;;;;;10.8;8.3;;;;;;;19.07;83.7002;941.7921;;;;
2022/08/07 07:48:23;;;;;;;9.4;8.5;;;;;;;18.98;84.25391;941.8352;;;;
2022/08/07 07:50:48;;;;;;;9.3;8.4;;;;;;;18.92;83.63672;941.7967;;;;
2022/08/07 07:53:16;;;;;;;10.7;7.9;;;;;;;19.01;83.23633;941.8275;;;;
2022/08/07 07:56:07;;;;;;;9.3;8.3;;;;;;;18.86;83.97559;941.801;;;;
2022/08/07 07:58:30;;;;;;;11.6;8;;;;;;;19.06;83.91016;941.8672;;;;
2022/08/07 08:00:55;;;;;;;8.8;7.9;;;;;;;19.15;82.24902;941.8745;;;;
2022/08/07 08:03:25;;;;;;;11;7.8;;;;;;;19.32;82.65332;941.9106;;;;
2022/08/07 08:05:54;;;;;;;9.1;7.8;;;;;;;19.3;82.21875;941.9059;;;;
2022/08/07 08:08:19;;;;;;;9.1;8.1;;;;;;;19.05;83.28809;941.8586;;;;
2022/08/07 08:10:44;;;;;;;11.2;7.8;;;;;;;19.24;82.33496;941.8393;;;;
2022/08/07 08:13:14;;;;;;;9.7;7.6;;;;;;;19.37;81.8252;941.8352;;;;
2022/08/07 08:15:48;;;;;;;8.6;7.7;;;;;;;19.55;82.04297;941.8075;;;;
2022/08/07 08:18:12;;;;;;;9.8;8.1;;;;;;;19.25;82.4668;941.7906;;;;
2022/08/07 08:20:42;;;;;;;9.1;8;;;;;;;18.97;84.625;941.762;;;;
2022/08/07 08:27:58;;;;;;;10.1;7.6;;;;;;;19.39;82.4707;941.8049;;;;
2022/08/07 08:30:23;;;;;;;8.9;8;;;;;;;19.24;83.75781;941.8546;;;;
2022/08/07 08:32:48;;;;;;;9.2;8.2;;;;;;;19.04;83.56738;941.8038;;;;
2022/08/07 08:35:13;;;;;;;10.9;9;;;;;;;19.2;83.32813;941.8729;;;;
2022/08/07 08:37:44;;;;;;;10.6;9.3;;;;;;;19.29;82.92773;941.9336;;;;
2022/08/07 08:40:09;;;;;;;11.2;10;;;;;;;19.07;83.73535;941.9301;;;;
2022/08/07 08:42:34;;;;;;;11;9.3;;;;;;;19.08;84.0752;941.8976;;;;
2022/08/07 08:44:59;;;;;;;14.3;9.6;;;;;;;19.22;82.66992;941.9153;;;;
2022/08/07 08:47:25;;;;;;;10.1;9.1;;;;;;;19.45;81.68848;941.9155;;;;
2022/08/07 08:49:51;;;;;;;10;9;;;;;;;19.56;81.13574;941.9227;;;;
2022/08/07 08:52:16;;;;;;;9;8.1;;;;;;;19.6;80.28125;941.9292;;;;
2022/08/07 08:54:41;;;;;;;9;8.1;;;;;;;19.81;79.95703;941.9327;;;;
2022/08/07 08:57:09;;;;;;;9.7;8.5;;;;;;;19.66;79.7793;941.9105;;;;
2022/08/07 08:59:36;;;;;;;10.5;8.6;;;;;;;19.85;79.76758;941.9321;;;;
2022/08/07 09:02:00;;;;;;;10;8.5;;;;;;;19.56;82.14941;941.9526;;;;
2022/08/07 09:04:28;;;;;;;10.2;8.8;;;;;;;19.73;80.12891;941.8825;;;;
2022/08/07 09:07:02;;;;;;;9.7;8.3;;;;;;;19.69;80.33105;941.9497;;;;
2022/08/07 09:09:25;;;;;;;9.4;8.2;;;;;;;19.73;79.82617;941.9576;;;;
2022/08/07 09:11:51;;;;;;;9.5;8.5;;;;;;;19.72;80.31445;941.962;;;;
2022/08/07 09:14:16;;;;;;;9.6;8.4;;;;;;;19.84;79.97559;941.9985;;;;
2022/08/07 09:16:41;;;;;;;9;8.1;;;;;;;19.66;80.59473;941.9252;;;;
2022/08/07 09:19:06;;;;;;;10.1;8.7;;;;;;;19.85;79.38086;941.9426;;;;
2022/08/07 09:21:34;;;;;;;8.8;7.9;;;;;;;19.77;80.14941;942.0037;;;;
2022/08/07 09:24:00;;;;;;;12;8.9;;;;;;;19.93;80.43359;942;;;;
2022/08/07 09:26:25;;;;;;;9.4;8.4;;;;;;;19.91;79.63672;941.9462;;;;
2022/08/07 09:28:53;;;;;;;9.8;8.6;;;;;;;19.63;80.6123;941.9758;;;;
2022/08/07 09:31:18;;;;;;;10.8;9.1;;;;;;;19.48;82.07617;942.0056;;;;
2022/08/07 09:33:44;;;;;;;10;9;;;;;;;19.6;82.2168;941.9712;;;;
2022/08/07 09:36:09;;;;;;;8.8;7.9;;;;;;;19.74;81.06543;942.0003;;;;
2022/08/07 09:38:37;;;;;;;9;7.9;;;;;;;19.79;79.45117;941.9404;;;;
2022/08/07 09:41:02;;;;;;;9;8;;;;;;;19.93;79.4541;941.95;;;;
2022/08/07 09:43:27;;;;;;;8.6;7.7;;;;;;;19.99;79.31152;942.003;;;;
2022/08/07 09:45:53;;;;;;;10.2;8.6;;;;;;;19.92;79.66406;942.0648;;;;
2022/08/07 09:48:23;;;;;;;9.1;8.3;;;;;;;19.78;80.58203;942.0779;;;;
2022/08/07 09:50:49;;;;;;;9;8.1;;;;;;;19.68;81.25195;942.0233;;;;
2022/08/07 09:53:15;;;;;;;9.9;8.2;;;;;;;19.85;80.03613;942.0298;;;;
2022/08/07 09:55:41;;;;;;;52.7;29.4;;;;;;;19.83;80.83691;942.0044;;;;
2022/08/07 09:58:06;;;;;;;8;7.2;;;;;;;19.97;79.58984;942.0129;;;;
2022/08/07 10:00:31;;;;;;;9.5;7.7;;;;;;;19.86;79.46387;942.0095;;;;
2022/08/07 10:02:59;;;;;;;8.8;7.9;;;;;;;19.56;82.11621;941.9986;;;;
2022/08/07 10:05:29;;;;;;;9.3;8.4;;;;;;;19.27;82.13281;941.9849;;;;
2022/08/07 10:07:52;;;;;;;9.4;8.5;;;;;;;19.5;82.30273;941.959;;;;
2022/08/07 10:10:31;;;;;;;10.5;8.7;;;;;;;19.25;83.21191;942.0248;;;;
2022/08/07 10:12:57;;;;;;;9.8;8.8;;;;;;;19.4;82.49414;942.0019;;;;
2022/08/07 10:15:28;;;;;;;9.2;8.3;;;;;;;19.51;81.13867;941.9291;;;;
2022/08/07 10:17:55;;;;;;;10;8.4;;;;;;;19.65;81.10547;941.9294;;;;
2022/08/07 10:20:22;;;;;;;32.2;17.6;;;;;;;19.98;80.04688;941.9716;;;;
2022/08/07 10:22:47;;;;;;;13.8;10.1;;;;;;;20.24;78.72852;941.9213;;;;
2022/08/07 10:25:12;;;;;;;11.7;9.4;;;;;;;20.44;77.57227;941.8535;;;;
2022/08/07 10:27:40;;;;;;;10.5;8.5;;;;;;;20.53;76.54883;941.8481;;;;
2022/08/07 10:30:05;;;;;;;10.2;8.4;;;;;;;20.64;76.59277;941.7997;;;;
2022/08/07 10:32:30;;;;;;;9;8.1;;;;;;;20.49;77.8623;941.785;;;;
2022/08/07 10:34:55;;;;;;;8.8;7.9;;;;;;;20.46;77.33008;941.8683;;;;
2022/08/07 10:37:22;;;;;;;9.2;7.9;;;;;;;20.17;78.53027;941.89;;;;
2022/08/07 10:39:51;;;;;;;8.5;7.7;;;;;;;20.29;76.02832;941.8959;;;;
2022/08/07 10:42:16;;;;;;;7.6;6.9;;;;;;;20.2;78.46484;941.8481;;;;
2022/08/07 10:44:41;;;;;;;8.5;7.6;;;;;;;20.08;77.44043;941.8597;;;;
2022/08/07 10:47:07;;;;;;;8.7;7.8;;;;;;;20.25;77.71484;941.7778;;;;
2022/08/07 10:49:35;;;;;;;7.3;6.7;;;;;;;20.41;76.87891;941.7939;;;;
2022/08/07 10:52:00;;;;;;;8.1;7.3;;;;;;;20.74;75.54492;941.8095;;;;
2022/08/07 10:54:27;;;;;;;7.4;6.7;;;;;;;20.81;77.53223;941.7706;;;;
2022/08/07 10:56:51;;;;;;;7.4;6.7;;;;;;;20.88;75.53223;941.7506;;;;
2022/08/07 10:59:17;;;;;;;7.7;7;;;;;;;20.68;77.03125;941.7355;;;;
2022/08/07 11:01:47;;;;;;;7.1;6.4;;;;;;;20.99;77.05957;941.6953;;;;
2022/08/07 11:04:08;;;;;;;6.8;6.1;;;;;;;21.01;75.2168;941.6825;;;;
2022/08/07 11:06:50;;;;;;;7.1;6.4;;;;;;;21.01;75.12305;941.7294;;;;
2022/08/07 11:09:17;;;;;;;8.7;6.9;;;;;;;21.24;73.65234;941.6805;;;;
2022/08/07 11:11:50;;;;;;;7.1;6.4;;;;;;;21.59;72.67969;941.6174;;;;
2022/08/07 11:14:15;;;;;;;6.9;6.2;;;;;;;21.86;71.99805;941.5988;;;;
2022/08/07 11:16:40;;;;;;;6.3;5.7;;;;;;;22;71.29492;941.597;;;;
2022/08/07 11:19:05;;;;;;;6.8;5.8;;;;;;;21.79;71.97656;941.5552;;;;
2022/08/07 11:21:30;;;;;;;7;6.3;;;;;;;21.44;72.82031;941.6083;;;;
2022/08/07 11:23:55;;;;;;;6.4;5.8;;;;;;;21.68;72.40234;941.5664;;;;
2022/08/07 11:26:20;;;;;;;9;6.9;;;;;;;21.52;72.64648;941.5323;;;;
2022/08/07 11:28:51;;;;;;;6.7;6.2;;;;;;;21.97;71.16113;941.5884;;;;
2022/08/07 11:31:12;;;;;;;6.8;6.1;;;;;;;22.05;70.44629;941.5372;;;;
2022/08/07 11:33:47;;;;;;;6.7;6.1;;;;;;;21.98;71.29199;941.5694;;;;
2022/08/07 11:36:13;;;;;;;6.3;5.7;;;;;;;22.17;69.55176;941.544;;;;
2022/08/07 11:38:37;;;;;;;6.5;5.9;;;;;;;21.72;73.13379;941.5402;;;;
2022/08/07 11:41:06;;;;;;;6.3;5.7;;;;;;;22.09;70.07715;941.5595;;;;
2022/08/07 11:43:31;;;;;;;6.7;6.1;;;;;;;21.78;72.81836;941.445;;;;
2022/08/07 11:45:56;;;;;;;6.9;6.2;;;;;;;21.88;71.77832;941.5092;;;;
2022/08/07 11:48:21;;;;;;;6.5;5.9;;;;;;;21.82;71.27734;941.4537;;;;
2022/08/07 11:50:46;;;;;;;7.6;6;;;;;;;22.07;69.72363;941.4458;;;;
2022/08/07 11:53:15;;;;;;;7.2;6.2;;;;;;;21.29;73.52051;941.4734;;;;
2022/08/07 11:55:43;;;;;;;6.6;5.5;;;;;;;21.55;73.19043;941.4821;;;;
2022/08/07 11:58:08;;;;;;;6.8;5.6;;;;;;;21.87;72.0459;941.4509;;;;
2022/08/07 12:00:35;;;;;;;6;5.5;;;;;;;21.74;71.27637;941.4559;;;;
2022/08/07 12:03:03;;;;;;;7.2;6.5;;;;;;;22.13;69.69727;941.4568;;;;
2022/08/07 12:05:28;;;;;;;6.6;6;;;;;;;22.01;69.59863;941.4492;;;;
2022/08/07 12:07:54;;;;;;;7.5;6.1;;;;;;;22.06;71.1748;941.4615;;;;
2022/08/07 12:10:19;;;;;;;7.2;6;;;;;;;22.09;69.94824;941.4622;;;;
2022/08/07 12:12:44;;;;;;;8;6.5;;;;;;;22.01;71.07324;941.4275;;;;
2022/08/07 12:15:17;;;;;;;5.5;5.1;;;;;;;22.02;71.75488;941.4303;;;;
2022/08/07 12:17:42;;;;;;;6.4;5.8;;;;;;;21.22;74.90234;941.3884;;;;
2022/08/07 12:20:08;;;;;;;6.1;5.5;;;;;;;21.41;73.7041;941.3803;;;;
2022/08/07 12:22:36;;;;;;;6.3;5.5;;;;;;;21.4;75.71582;941.3953;;;;
2022/08/07 12:27:31;;;;;;;7.1;6.5;;;;;;;21.14;76.10352;941.3847;;;;
2022/08/07 12:29:57;;;;;;;6.1;5.5;;;;;;;21.33;74.54492;941.347;;;;
2022/08/07 12:32:23;;;;;;;6.1;5.5;;;;;;;21.34;76.39551;941.3435;;;;
2022/08/07 12:34:48;;;;;;;6.7;6.1;;;;;;;21.46;75.5625;941.334;;;;
2022/08/07 12:37:13;;;;;;;8.4;6.6;;;;;;;21.17;75.19727;941.3125;;;;
2022/08/07 12:39:39;;;;;;;6.5;5.9;;;;;;;21.28;75.3916;941.2156;;;;
2022/08/07 12:42:06;;;;;;;6.6;6;;;;;;;21.54;73.1875;941.2797;;;;
2022/08/07 12:44:31;;;;;;;6.4;5.8;;;;;;;21.71;73.0166;941.2338;;;;
2022/08/07 12:46:56;;;;;;;7.9;7.1;;;;;;;21.51;75.84082;941.2386;;;;
2022/08/07 12:49:21;;;;;;;7.6;6.7;;;;;;;21.38;75.4082;941.2111;;;;
2022/08/07 12:51:46;;;;;;;6.6;5.9;;;;;;;21.48;73.98633;941.185;;;;
2022/08/07 12:54:12;;;;;;;6.1;5.6;;;;;;;21.88;71.59277;941.1969;;;;
2022/08/07 12:56:39;;;;;;;5.7;5.2;;;;;;;22.27;69.30957;941.1153;;;;
2022/08/07 12:59:04;;;;;;;5.7;5.2;;;;;;;22.32;69.36328;941.0765;;;;
2022/08/07 13:01:34;;;;;;;6.2;5.6;;;;;;;22.09;72.17578;941.0226;;;;
2022/08/07 13:03:59;;;;;;;11.1;6.4;;;;;;;21.86;73.38086;941.0524;;;;
2022/08/07 13:06:28;;;;;;;6.8;6.1;;;;;;;22.18;70.31543;941.0869;;;;
2022/08/07 13:08:53;;;;;;;7.1;6.4;;;;;;;22.38;69.78418;941.0325;;;;
2022/08/07 13:11:32;;;;;;;7.4;6.6;;;;;;;22.14;69.83887;941.0964;;;;
2022/08/07 13:13:53;;;;;;;6.7;6.1;;;;;;;22.12;70.55176;941.1222;;;;
2022/08/07 13:16:19;;;;;;;7.1;6.4;;;;;;;21.9;71.80469;941.0497;;;;
2022/08/07 13:18:44;;;;;;;7.1;6.4;;;;;;;22;71.12891;941.0595;;;;
2022/08/07 13:21:09;;;;;;;6.9;6.3;;;;;;;21.81;72.44727;941.0974;;;;
2022/08/07 13:23:39;;;;;;;7;6.4;;;;;;;21.67;72.62305;941.0876;;;;
2022/08/07 13:26:07;;;;;;;6.5;5.9;;;;;;;21.71;72.72461;941.0839;;;;
2022/08/07 13:28:32;;;;;;;7.8;6.1;;;;;;;21.7;73.08594;941.0242;;;;
2022/08/07 13:30:58;;;;;;;7.7;6.4;;;;;;;21.78;74.56348;941.0235;;;;
2022/08/07 13:33:23;;;;;;;8;7.2;;;;;;;21.38;75.70117;941.0028;;;;
2022/08/07 13:35:48;;;;;;;7.4;6.7;;;;;;;21.29;74.1748;941.0711;;;;
2022/08/07 13:38:13;;;;;;;7.5;6.8;;;;;;;21.32;76.38086;941.0256;;;;
2022/08/07 13:40:38;;;;;;;7.6;6.9;;;;;;;21.43;73.83691;941.0544;;;;
2022/08/07 13:43:03;;;;;;;6.5;5.9;;;;;;;21.6;72.55273;941.0903;;;;
2022/08/07 13:45:35;;;;;;;6.6;5.7;;;;;;;21.59;72.39941;941.062;;;;
2022/08/07 13:48:00;;;;;;;6.9;6.3;;;;;;;21.53;73.37402;941.0305;;;;
2022/08/07 13:50:29;;;;;;;6.6;6;;;;;;;21.53;75.59863;941.0475;;;;
2022/08/07 13:52:54;;;;;;;7.7;6.1;;;;;;;21.48;75.02734;941.0806;;;;
2022/08/07 13:55:21;;;;;;;6.3;5.8;;;;;;;21.47;73.91309;941.0242;;;;
2022/08/07 13:57:50;;;;;;;6.9;6.2;;;;;;;21.54;72.62598;941.0457;;;;
2022/08/07 14:00:20;;;;;;;6.1;5.5;;;;;;;21.66;71.33301;941.0458;;;;
2022/08/07 14:02:50;;;;;;;6.4;5.8;;;;;;;21.35;73.53223;941.01;;;;
2022/08/07 14:05:23;;;;;;;6.5;5.9;;;;;;;20.96;75.00879;941.0173;;;;
2022/08/07 14:07:52;;;;;;;6.5;5.9;;;;;;;21.04;76.0166;941.0723;;;;
2022/08/07 14:10:17;;;;;;;6.3;5.7;;;;;;;20.82;76.7627;941.0272;;;;
2022/08/07 14:12:44;;;;;;;5.7;5;;;;;;;21.1;75.38574;940.9563;;;;
2022/08/07 14:15:30;;;;;;;5.9;5;;;;;;;21.27;74.44238;940.9426;;;;
2022/08/07 14:17:51;;;;;;;5.6;5.1;;;;;;;21.42;73.16895;940.9959;;;;
2022/08/07 14:20:20;;;;;;;5.4;4.9;;;;;;;21.59;72.41113;941.0312;;;;
2022/08/07 14:22:51;;;;;;;6;5.4;;;;;;;21.57;71.62305;940.9515;;;;
2022/08/07 14:25:22;;;;;;;5.3;4.8;;;;;;;21.5;71.68164;941.0031;;;;
2022/08/07 14:27:47;;;;;;;5.4;4.9;;;;;;;21.51;71.68457;940.8892;;;;
2022/08/07 14:30:19;;;;;;;5.8;5;;;;;;;21.51;72.9707;940.9445;;;;
2022/08/07 14:32:44;;;;;;;6.1;4.8;;;;;;;21.48;72.52344;940.908;;;;
2022/08/07 14:35:14;;;;;;;4.9;4.5;;;;;;;21.59;72.21191;940.9106;;;;
2022/08/07 14:37:40;;;;;;;5.3;4.8;;;;;;;21.68;71.93555;940.9105;;;;
2022/08/07 14:40:05;;;;;;;5;4.6;;;;;;;21.77;71.74902;940.9227;;;;
2022/08/07 14:42:30;;;;;;;5;4.5;;;;;;;21.71;72.30273;940.8739;;;;
2022/08/07 14:44:56;;;;;;;4.7;4.3;;;;;;;21.66;72.10742;940.8867;;;;
2022/08/07 14:47:22;;;;;;;4.9;4.5;;;;;;;21.73;72.29395;940.8483;;;;
2022/08/07 14:49:46;;;;;;;5.5;5;;;;;;;21.7;72.53516;940.9497;;;;
2022/08/07 14:52:11;;;;;;;4.8;4.4;;;;;;;21.7;72.13672;940.9472;;;;
2022/08/07 14:54:37;;;;;;;5;4.3;;;;;;;21.63;72.88672;940.9332;;;;
2022/08/07 14:57:02;;;;;;;4.4;4.1;;;;;;;21.61;72.63574;940.9214;;;;
2022/08/07 14:59:29;;;;;;;4.7;4.3;;;;;;;21.69;72.56738;940.9055;;;;
2022/08/07 15:01:54;;;;;;;4.6;4.2;;;;;;;21.48;74.16113;940.9023;;;;
2022/08/07 15:04:20;;;;;;;5.2;4.3;;;;;;;21.48;71.73926;940.8536;;;;
2022/08/07 15:06:44;;;;;;;4.6;4.2;;;;;;;21.44;72.36328;940.8994;;;;
2022/08/07 15:09:14;;;;;;;4.8;4.4;;;;;;;21.2;74.53711;940.9205;;;;
2022/08/07 15:11:38;;;;;;;4.6;4.2;;;;;;;21.06;75.31934;940.9275;;;;
2022/08/07 15:14:05;;;;;;;4.9;4.5;;;;;;;21.23;75.52441;940.9199;;;;
2022/08/07 15:16:34;;;;;;;6;4.1;;;;;;;21.32;75.85547;940.8984;;;;
2022/08/07 15:18:59;;;;;;;4.9;4.5;;;;;;;21.35;74.7832;940.8725;;;;
2022/08/07 15:21:25;;;;;;;4.8;4.4;;;;;;;21.38;75;940.8747;;;;
2022/08/07 15:23:50;;;;;;;5.3;4.8;;;;;;;21.39;74.82422;940.8479;;;;
2022/08/07 15:26:18;;;;;;;4.6;4.2;;;;;;;21.37;74.55273;940.8434;;;;
2022/08/07 15:28:44;;;;;;;4;3.7;;;;;;;21.48;74.28906;940.8683;;;;
2022/08/07 15:31:09;;;;;;;4.5;4.1;;;;;;;21.42;75.06348;940.8633;;;;
2022/08/07 15:33:37;;;;;;;6.7;4.7;;;;;;;21.19;74.94434;940.8056;;;;
2022/08/07 15:36:03;;;;;;;4.1;3.6;;;;;;;21.26;75.93848;940.8117;;;;